Time;durP1;ratioP1;P1;durP2;ratioP2;P2;SDS_P1;SDS_P2;PMS_P1;PMS_P2;Temp;Humidity;BMP_temperature;BMP_pressure;BME280_temperature;BME280_humidity;BME280_pressure;Samples;Min_cycle;Max_cycle;Signal;HPM_P1;HPM_P2
2022/04/01 00:00:23;;;;;;;17.23;13.30;;;7.20;80.70;;;;;;5042868;28;20551;-46
2022/04/01 00:02:50;;;;;;;18.60;14.60;;;7.20;80.80;;;;;;5040721;28;20967;-46
2022/04/01 00:05:17;;;;;;;19.17;15.00;;;7.20;80.40;;;;;;5042091;28;20504;-46
2022/04/01 00:07:44;;;;;;;18.53;15.43;;;7.20;80.40;;;;;;5039239;28;20523;-45
2022/04/01 00:10:11;;;;;;;19.93;15.10;;;7.20;80.10;;;;;;5047424;28;20543;-45
2022/04/01 00:12:43;;;;;;;20.80;14.50;;;7.10;80.20;;;;;;5038451;28;20531;-45
2022/04/01 00:15:12;;;;;;;18.10;14.07;;;7.20;80.10;;;;;;5038399;28;20464;-46
2022/04/01 00:17:40;;;;;;;18.10;14.27;;;7.20;79.60;;;;;;5023896;28;20456;-46
2022/04/01 00:20:09;;;;;;;18.40;14.20;;;7.20;79.60;;;;;;5039378;28;20465;-45
2022/04/01 00:22:36;;;;;;;18.10;14.63;;;7.20;79.10;;;;;;5040958;28;20900;-45
2022/04/01 00:25:04;;;;;;;18.17;15.43;;;7.10;79.20;;;;;;5039890;28;20564;-45
2022/04/01 00:27:31;;;;;;;17.17;13.90;;;7.10;79.20;;;;;;5040388;28;20467;-46
2022/04/01 00:29:57;;;;;;;16.07;13.20;;;7.00;78.90;;;;;;5042814;28;20466;-46
2022/04/01 00:32:24;;;;;;;17.57;13.23;;;7.10;78.90;;;;;;5025942;28;20533;-46
2022/04/01 00:34:52;;;;;;;17.97;14.07;;;7.10;79.10;;;;;;5023315;28;20495;-46
2022/04/01 00:37:19;;;;;;;17.77;13.40;;;7.00;79.10;;;;;;5040101;28;20523;-46
2022/04/01 00:39:45;;;;;;;17.80;14.70;;;7.00;79.00;;;;;;5020812;28;20496;-46
2022/04/01 00:42:12;;;;;;;19.47;14.80;;;7.00;79.10;;;;;;5022955;28;20543;-46
2022/04/01 00:44:40;;;;;;;17.90;14.83;;;7.00;79.40;;;;;;5041494;28;20483;-46
2022/04/01 00:47:13;;;;;;;18.33;14.43;;;7.00;79.50;;;;;;5041598;28;20803;-46
2022/04/01 00:49:41;;;;;;;17.90;15.33;;;6.90;79.50;;;;;;5037834;28;20463;-45
2022/04/01 00:52:11;;;;;;;18.87;14.57;;;7.00;79.30;;;;;;5024219;28;20457;-46
2022/04/01 00:54:39;;;;;;;18.67;14.00;;;7.00;79.20;;;;;;5038102;28;20599;-45
2022/04/01 00:57:10;;;;;;;17.40;14.40;;;7.10;78.80;;;;;;5034793;28;20464;-46
2022/04/01 00:59:37;;;;;;;17.60;13.90;;;7.10;78.80;;;;;;5038727;28;20440;-46
2022/04/01 01:02:05;;;;;;;17.37;13.70;;;7.00;78.90;;;;;;5038303;28;20491;-45
2022/04/01 01:04:32;;;;;;;18.80;14.67;;;6.90;79.10;;;;;;5038253;28;20483;-45
2022/04/01 01:07:00;;;;;;;16.97;12.67;;;7.00;79.20;;;;;;5037639;28;20478;-46
2022/04/01 01:09:27;;;;;;;16.83;14.50;;;7.00;78.90;;;;;;5039503;28;20535;-46
2022/04/01 01:11:55;;;;;;;19.20;13.97;;;7.00;78.50;;;;;;5020513;28;20459;-46
2022/04/01 01:14:26;;;;;;;16.10;13.67;;;6.90;78.80;;;;;;5038147;28;20483;-46
2022/04/01 01:16:53;;;;;;;17.53;14.73;;;6.90;79.40;;;;;;5034848;28;20468;-46
2022/04/01 01:19:20;;;;;;;16.80;14.83;;;6.90;79.30;;;;;;5020915;28;20554;-46
2022/04/01 01:21:50;;;;;;;17.77;14.43;;;6.90;79.30;;;;;;5039287;28;20457;-46
2022/04/01 01:24:17;;;;;;;17.97;14.73;;;6.90;78.80;;;;;;5039899;28;20979;-46
2022/04/01 01:26:51;;;;;;;17.27;13.83;;;6.80;79.10;;;;;;5039177;28;20452;-45
2022/04/01 01:29:22;;;;;;;15.80;13.67;;;6.90;79.00;;;;;;5039660;28;20515;-45
2022/04/01 01:31:49;;;;;;;19.00;14.83;;;6.90;78.60;;;;;;5040004;28;20561;-45
2022/04/01 01:34:18;;;;;;;16.53;13.37;;;6.80;78.70;;;;;;5040348;28;20501;-45
2022/04/01 01:36:45;;;;;;;18.30;14.47;;;6.80;78.30;;;;;;5042885;28;20451;-45
2022/04/01 01:39:12;;;;;;;17.17;14.53;;;6.80;78.30;;;;;;5043726;28;20464;-46
2022/04/01 01:41:38;;;;;;;19.50;13.73;;;6.80;78.30;;;;;;5043195;28;20468;-45
2022/04/01 01:44:05;;;;;;;17.43;13.43;;;6.80;78.50;;;;;;5044462;28;20450;-46
2022/04/01 01:46:32;;;;;;;18.53;14.27;;;6.80;78.50;;;;;;5024655;28;20479;-46
2022/04/01 01:48:59;;;;;;;19.43;14.40;;;6.80;77.60;;;;;;5040943;28;20846;-46
2022/04/01 01:57:19;;;;;;;18.40;13.33;;;6.70;78.20;;;;;;4955683;28;20470;-45
2022/04/01 01:59:47;;;;;;;17.90;13.93;;;6.70;77.70;;;;;;5002780;28;20466;-45
2022/04/01 02:02:14;;;;;;;16.60;13.83;;;6.70;77.50;;;;;;5036292;28;20530;-45
2022/04/01 02:04:41;;;;;;;17.10;13.57;;;6.70;77.80;;;;;;5032389;28;20545;-45
2022/04/01 02:07:10;;;;;;;18.93;14.93;;;6.60;77.80;;;;;;5003577;28;20540;-46
2022/04/01 02:09:40;;;;;;;18.77;13.73;;;6.60;77.80;;;;;;5041761;28;20565;-45
2022/04/01 02:12:07;;;;;;;18.50;14.50;;;6.60;78.10;;;;;;5042028;28;20524;-46
2022/04/01 02:14:34;;;;;;;17.27;15.00;;;6.50;78.50;;;;;;5025395;28;20565;-45
2022/04/01 02:17:01;;;;;;;16.50;13.00;;;6.60;78.80;;;;;;5046619;28;20460;-45
2022/04/01 02:19:30;;;;;;;17.57;13.37;;;6.60;78.80;;;;;;5043590;28;20447;-45
2022/04/01 02:21:58;;;;;;;16.20;12.50;;;6.70;78.40;;;;;;5025108;28;20469;-45
2022/04/01 02:24:25;;;;;;;16.93;13.40;;;6.70;78.20;;;;;;5032890;28;20463;-45
2022/04/01 02:26:52;;;;;;;17.87;13.87;;;6.70;77.70;;;;;;5031334;28;20488;-45
2022/04/01 02:29:21;;;;;;;13.97;11.90;;;6.70;77.80;;;;;;5011897;28;20453;-44
2022/04/01 02:31:50;;;;;;;16.47;13.20;;;6.70;78.00;;;;;;5030839;28;20555;-45
2022/04/01 02:34:18;;;;;;;16.70;14.80;;;6.70;77.70;;;;;;5030392;28;20525;-45
2022/04/01 02:36:45;;;;;;;16.47;13.30;;;6.70;77.10;;;;;;5029521;28;20452;-42
2022/04/01 02:39:12;;;;;;;15.07;13.47;;;6.70;77.40;;;;;;5029616;28;20484;-42
2022/04/01 02:41:39;;;;;;;16.30;13.80;;;6.60;76.40;;;;;;5027599;28;20457;-42
2022/04/01 02:44:09;;;;;;;16.27;14.60;;;6.50;76.90;;;;;;5029919;28;21412;-42
2022/04/01 02:46:45;;;;;;;18.57;14.40;;;6.50;77.30;;;;;;5028460;28;20491;-42
2022/04/01 02:49:15;;;;;;;18.47;14.40;;;6.50;77.40;;;;;;5026933;28;20530;-43
2022/04/01 02:51:44;;;;;;;15.40;13.30;;;6.40;77.20;;;;;;5029086;28;20857;-42
2022/04/01 02:54:11;;;;;;;16.80;12.63;;;6.30;77.10;;;;;;5025727;28;21444;-42
2022/04/01 02:56:39;;;;;;;15.87;12.50;;;6.30;77.40;;;;;;5010203;28;20470;-42
2022/04/01 02:59:08;;;;;;;18.60;13.40;;;6.30;77.70;;;;;;5028991;28;20495;-42
2022/04/01 03:01:37;;;;;;;14.40;11.90;;;6.20;78.00;;;;;;5003880;28;20470;-43
2022/04/01 03:04:09;;;;;;;15.37;13.00;;;6.20;77.80;;;;;;5025230;28;20464;-42
2022/04/01 03:06:38;;;;;;;18.10;13.10;;;6.20;77.80;;;;;;5026812;28;21274;-42
2022/04/01 03:09:12;;;;;;;14.13;12.23;;;6.20;77.40;;;;;;5005673;28;20486;-42
2022/04/01 03:11:41;;;;;;;14.13;11.23;;;6.20;77.60;;;;;;5027465;28;20459;-42
2022/04/01 03:14:09;;;;;;;14.60;12.87;;;6.20;77.30;;;;;;5008480;28;20463;-42
2022/04/01 03:16:39;;;;;;;15.50;13.03;;;6.20;77.60;;;;;;5025066;28;20460;-41
2022/04/01 03:19:11;;;;;;;16.80;12.57;;;6.20;77.50;;;;;;5026504;28;20902;-41
2022/04/01 03:21:39;;;;;;;13.63;12.10;;;6.20;77.70;;;;;;5026550;28;20472;-42
2022/04/01 03:24:10;;;;;;;17.37;12.63;;;6.20;77.90;;;;;;5010671;28;20466;-42
2022/04/01 03:26:38;;;;;;;15.67;13.00;;;6.10;78.20;;;;;;5025447;28;20488;-42
2022/04/01 03:29:07;;;;;;;16.97;13.10;;;6.20;77.70;;;;;;5029334;28;20466;-42
2022/04/01 03:31:35;;;;;;;15.20;12.73;;;6.20;77.70;;;;;;5025746;28;21150;-41
2022/04/01 03:34:02;;;;;;;16.97;12.80;;;6.20;77.40;;;;;;5025028;28;20469;-42
2022/04/01 03:36:29;;;;;;;15.17;13.57;;;6.20;77.70;;;;;;5027125;28;20487;-41
2022/04/01 03:38:56;;;;;;;15.77;12.80;;;6.10;77.80;;;;;;5026103;28;20465;-42
2022/04/01 03:41:24;;;;;;;16.63;12.70;;;6.10;77.60;;;;;;5024811;28;20461;-41
2022/04/01 03:43:54;;;;;;;13.20;11.40;;;6.10;77.70;;;;;;5022522;28;20461;-41
2022/04/01 03:46:24;;;;;;;15.80;12.67;;;6.10;77.40;;;;;;5024786;28;20488;-41
2022/04/01 03:49:07;;;;;;;15.70;13.40;;;6.20;77.10;;;;;;5025621;28;20471;-42
2022/04/01 03:51:38;;;;;;;14.13;11.37;;;6.10;77.30;;;;;;5021490;28;20518;-42
2022/04/01 03:54:06;;;;;;;14.70;13.10;;;6.10;77.20;;;;;;5008209;28;20456;-42
2022/04/01 03:56:35;;;;;;;15.20;12.40;;;6.20;77.60;;;;;;5008570;28;20871;-42
2022/04/01 03:59:07;;;;;;;13.47;10.83;;;6.10;77.60;;;;;;5026309;28;20464;-42
2022/04/01 04:01:35;;;;;;;13.80;11.43;;;6.10;77.50;;;;;;5009728;28;20923;-41
2022/04/01 04:04:03;;;;;;;14.10;11.63;;;6.10;77.40;;;;;;5026218;28;20459;-41
2022/04/01 04:06:32;;;;;;;13.80;11.33;;;6.20;77.70;;;;;;5008925;28;20486;-41
2022/04/01 04:09:03;;;;;;;14.67;11.33;;;6.10;77.60;;;;;;5025705;28;21129;-41
2022/04/01 04:11:34;;;;;;;13.20;11.20;;;6.10;77.20;;;;;;5025362;28;20899;-42
2022/04/01 04:14:03;;;;;;;14.00;11.40;;;6.10;77.30;;;;;;5009758;28;20456;-42
2022/04/01 04:16:46;;;;;;;12.57;10.53;;;6.20;77.60;;;;;;5025954;28;20470;-42
2022/04/01 04:19:13;;;;;;;16.93;12.40;;;6.10;77.80;;;;;;5025296;28;20448;-42
2022/04/01 04:21:55;;;;;;;12.33;10.80;;;6.10;77.90;;;;;;5024739;28;20457;-42
2022/04/01 04:24:43;;;;;;;13.53;11.10;;;6.10;77.10;;;;;;5002402;28;20967;-42
2022/04/01 04:27:12;;;;;;;14.17;11.67;;;6.20;77.60;;;;;;5025045;28;20574;-42
2022/04/01 04:30:08;;;;;;;13.13;11.67;;;6.10;77.40;;;;;;5026159;28;20468;-42
2022/04/01 04:32:44;;;;;;;12.30;10.57;;;6.10;77.50;;;;;;5018359;28;21015;-42
2022/04/01 04:35:11;;;;;;;12.33;10.20;;;6.20;77.50;;;;;;5025356;28;20505;-42
2022/04/01 04:37:47;;;;;;;12.30;10.23;;;6.10;77.50;;;;;;5025824;28;20452;-41
2022/04/01 04:40:19;;;;;;;11.60;10.37;;;6.10;77.40;;;;;;5009867;28;20452;-42
2022/04/01 04:42:48;;;;;;;11.10;9.97;;;6.10;77.50;;;;;;5026793;28;20586;-42
2022/04/01 04:45:19;;;;;;;12.43;10.93;;;6.20;77.30;;;;;;5026038;28;20532;-41
2022/04/01 04:47:48;;;;;;;11.87;10.73;;;6.20;77.30;;;;;;5025607;28;20452;-41
2022/04/01 04:50:18;;;;;;;10.60;9.50;;;6.10;76.90;;;;;;5024218;28;20456;-42
2022/04/01 04:52:49;;;;;;;11.70;10.53;;;6.20;76.90;;;;;;5005154;28;20957;-42
2022/04/01 04:55:20;;;;;;;11.00;9.03;;;6.10;77.20;;;;;;5009239;28;20463;-42
2022/04/01 04:57:48;;;;;;;10.43;9.23;;;6.10;77.10;;;;;;5025888;28;20451;-42
2022/04/01 05:00:19;;;;;;;13.10;9.50;;;6.20;77.00;;;;;;5005575;28;20463;-41
2022/04/01 05:03:07;;;;;;;11.87;9.67;;;6.20;77.20;;;;;;5021204;28;20493;-42
2022/04/01 05:05:56;;;;;;;10.00;8.73;;;6.20;77.30;;;;;;5027097;28;20566;-42
2022/04/01 05:08:46;;;;;;;10.67;9.27;;;6.30;77.20;;;;;;5002117;28;21023;-42
2022/04/01 05:11:37;;;;;;;12.33;9.60;;;6.30;77.10;;;;;;5025334;28;20526;-42
2022/04/01 05:14:29;;;;;;;10.57;9.47;;;6.30;76.70;;;;;;5025678;28;20551;-41
2022/04/01 05:17:04;;;;;;;9.07;8.17;;;6.30;76.40;;;;;;5027321;28;20463;-42
2022/04/01 05:19:32;;;;;;;10.80;9.43;;;6.20;77.10;;;;;;5029240;28;20455;-42
2022/04/01 05:22:03;;;;;;;10.23;8.87;;;6.20;77.50;;;;;;5028002;28;20456;-41
2022/04/01 05:24:47;;;;;;;10.70;9.60;;;6.10;77.70;;;;;;5026937;28;20563;-42
2022/04/01 05:27:24;;;;;;;10.80;9.30;;;6.20;76.50;;;;;;5031006;28;20491;-43
2022/04/01 05:30:12;;;;;;;10.77;9.67;;;6.20;77.00;;;;;;5026525;28;20476;-42
2022/04/01 05:32:59;;;;;;;9.87;8.77;;;6.20;77.10;;;;;;5023230;28;20507;-43
2022/04/01 05:35:32;;;;;;;9.23;8.43;;;6.20;76.80;;;;;;5028138;28;20459;-42
2022/04/01 05:38:00;;;;;;;11.07;9.27;;;6.20;76.90;;;;;;5025070;28;20550;-42
2022/04/01 05:40:31;;;;;;;12.00;9.37;;;6.10;77.00;;;;;;5011539;28;21288;-42
2022/04/01 05:43:00;;;;;;;10.53;8.23;;;6.20;76.30;;;;;;5028760;28;20992;-42
2022/04/01 05:45:29;;;;;;;10.07;9.07;;;6.20;76.30;;;;;;5022981;28;20479;-42
2022/04/01 05:47:57;;;;;;;13.03;9.17;;;6.20;76.10;;;;;;5011525;28;20459;-42
2022/04/01 05:50:25;;;;;;;9.53;8.50;;;6.20;75.40;;;;;;5027536;28;20464;-42
2022/04/01 05:52:53;;;;;;;9.07;8.13;;;6.30;75.10;;;;;;5029518;28;20448;-42
2022/04/01 05:55:25;;;;;;;10.33;8.17;;;6.20;74.70;;;;;;5028009;28;20816;-42
2022/04/01 05:57:54;;;;;;;9.60;8.60;;;6.20;75.20;;;;;;5029007;28;20663;-43
2022/04/01 06:00:21;;;;;;;9.90;7.90;;;6.10;74.90;;;;;;5007598;28;20468;-43
2022/04/01 06:03:28;;;;;;;10.00;8.60;;;6.10;75.30;;;;;;5032469;28;20447;-43
2022/04/01 06:06:09;;;;;;;10.80;8.97;;;6.10;74.90;;;;;;5011625;28;20484;-42
2022/04/01 06:09:24;;;;;;;10.13;9.10;;;6.10;74.50;;;;;;5027470;28;20708;-42
2022/04/01 06:11:53;;;;;;;8.20;7.40;;;6.10;74.70;;;;;;4991896;28;20483;-42
2022/04/01 06:14:23;;;;;;;8.67;7.63;;;6.00;73.80;;;;;;5027465;28;20468;-42
2022/04/01 06:17:17;;;;;;;10.70;8.40;;;5.90;73.70;;;;;;5027065;28;20474;-42
2022/04/01 06:19:46;;;;;;;10.57;7.80;;;5.90;74.00;;;;;;5024016;28;20474;-42
2022/04/01 06:22:15;;;;;;;12.67;8.83;;;5.90;74.70;;;;;;5028491;28;20830;-42
2022/04/01 06:25:03;;;;;;;10.57;9.47;;;5.90;73.40;;;;;;5028695;28;20472;-42
2022/04/01 06:27:33;;;;;;;14.47;9.30;;;5.80;74.30;;;;;;5025633;28;20991;-43
2022/04/01 06:30:09;;;;;;;12.47;9.77;;;5.80;74.70;;;;;;5028803;28;20466;-42
2022/04/01 06:33:19;;;;;;;10.23;8.93;;;5.80;75.00;;;;;;5026583;28;20474;-42
2022/04/01 06:36:05;;;;;;;7.77;6.93;;;5.80;74.40;;;;;;5029243;28;20460;-43
2022/04/01 06:39:07;;;;;;;10.40;8.67;;;5.80;74.70;;;;;;5027184;28;20479;-42
2022/04/01 06:41:50;;;;;;;11.37;8.93;;;5.70;74.40;;;;;;5023778;28;20469;-41
2022/04/01 06:44:17;;;;;;;9.33;8.23;;;5.80;74.70;;;;;;5012366;28;20486;-42
2022/04/01 06:46:44;;;;;;;11.33;9.47;;;5.80;75.00;;;;;;5011717;28;20953;-42
2022/04/01 06:49:11;;;;;;;9.07;7.57;;;5.80;74.80;;;;;;5029347;28;20525;-42
2022/04/01 06:51:39;;;;;;;11.73;8.80;;;5.80;74.00;;;;;;5029178;28;20463;-42
2022/04/01 06:54:06;;;;;;;9.90;8.10;;;5.80;73.80;;;;;;5028829;28;20444;-42
2022/04/01 06:56:33;;;;;;;9.27;8.20;;;5.90;73.70;;;;;;5011091;28;20943;-42
2022/04/01 06:59:00;;;;;;;11.00;9.07;;;5.80;73.70;;;;;;5029831;28;20456;-41
2022/04/01 07:01:28;;;;;;;10.63;8.67;;;5.90;74.10;;;;;;5027921;28;20448;-42
2022/04/01 07:03:55;;;;;;;12.00;9.57;;;5.90;74.10;;;;;;5025162;28;21046;-42
2022/04/01 07:06:22;;;;;;;11.07;8.93;;;5.90;73.10;;;;;;5027525;28;20487;-42
2022/04/01 07:08:49;;;;;;;12.20;9.07;;;5.90;73.00;;;;;;5008872;28;20853;-42
2022/04/01 07:11:15;;;;;;;11.30;9.60;;;5.90;73.00;;;;;;5010263;28;20458;-41
2022/04/01 07:13:42;;;;;;;10.77;9.03;;;5.90;73.60;;;;;;5029545;28;20458;-42
2022/04/01 07:16:12;;;;;;;11.40;10.20;;;5.90;73.20;;;;;;5027733;28;20848;-42
2022/04/01 07:18:39;;;;;;;11.80;9.03;;;5.90;73.30;;;;;;5023700;28;20471;-43
2022/04/01 07:21:08;;;;;;;10.63;8.93;;;5.90;72.30;;;;;;5026963;28;20467;-42
2022/04/01 07:23:36;;;;;;;10.40;9.43;;;5.90;72.90;;;;;;5025437;28;21044;-42
2022/04/01 07:26:04;;;;;;;11.40;8.80;;;5.90;72.30;;;;;;5008182;28;20535;-42
2022/04/01 07:28:32;;;;;;;10.60;8.73;;;5.90;72.80;;;;;;5030348;28;20458;-41
2022/04/01 07:34:21;;;;;;;12.33;8.33;;;5.90;72.80;;;;;;5028019;28;20501;-41
2022/04/01 07:36:49;;;;;;;10.73;8.90;;;5.80;72.00;;;;;;5028029;28;20549;-41
2022/04/01 07:39:16;;;;;;;14.63;8.30;;;5.80;72.60;;;;;;5028075;28;20978;-41
2022/04/01 07:41:43;;;;;;;9.97;7.10;;;5.80;72.10;;;;;;5026437;28;20546;-42
2022/04/01 07:44:09;;;;;;;9.50;8.17;;;5.80;70.80;;;;;;5010009;28;20451;-42
2022/04/01 07:46:36;;;;;;;9.80;8.10;;;5.80;72.20;;;;;;5028644;28;20829;-42
2022/04/01 07:49:03;;;;;;;11.37;8.07;;;5.70;72.20;;;;;;5008363;28;20440;-42
2022/04/01 07:51:30;;;;;;;9.53;7.63;;;5.70;72.00;;;;;;4994472;28;20460;-42
2022/04/01 07:53:56;;;;;;;8.57;7.73;;;5.70;72.60;;;;;;5027903;28;20456;-42
2022/04/01 07:56:30;;;;;;;8.67;7.50;;;5.70;72.00;;;;;;5010819;28;20447;-42
2022/04/01 07:59:00;;;;;;;8.60;7.70;;;5.70;72.50;;;;;;5012770;28;20467;-42
2022/04/01 08:01:29;;;;;;;8.20;7.40;;;5.70;72.50;;;;;;5026527;28;20469;-42
2022/04/01 08:03:56;;;;;;;9.00;8.10;;;5.80;72.10;;;;;;4995573;28;20506;-42
2022/04/01 08:06:23;;;;;;;10.17;8.40;;;5.80;72.60;;;;;;5026545;28;20475;-42
2022/04/01 08:08:49;;;;;;;13.43;8.13;;;5.80;71.20;;;;;;5027418;28;20505;-42
2022/04/01 08:11:16;;;;;;;9.50;7.87;;;5.70;70.90;;;;;;5027166;28;20463;-42
2022/04/01 08:13:43;;;;;;;11.63;7.57;;;5.70;71.20;;;;;;5027883;28;20439;-42
2022/04/01 08:16:11;;;;;;;9.00;7.47;;;5.60;72.40;;;;;;5027398;28;20466;-42
2022/04/01 08:18:38;;;;;;;8.80;7.87;;;5.60;71.30;;;;;;5027323;28;20966;-42
2022/04/01 08:21:05;;;;;;;9.07;7.13;;;5.60;71.80;;;;;;5023213;28;20460;-42
2022/04/01 08:23:35;;;;;;;9.03;6.90;;;5.50;72.10;;;;;;5004901;28;21051;-42
2022/04/01 08:26:02;;;;;;;7.97;7.17;;;5.60;72.00;;;;;;5008623;28;20464;-42
2022/04/01 08:28:30;;;;;;;8.20;6.27;;;5.50;70.40;;;;;;5026952;28;20462;-42
2022/04/01 08:30:57;;;;;;;11.13;7.60;;;5.50;71.00;;;;;;5027571;28;20476;-42
2022/04/01 08:33:25;;;;;;;11.20;8.77;;;5.50;71.40;;;;;;5006299;28;20555;-42
2022/04/01 08:35:52;;;;;;;11.73;7.70;;;5.40;72.30;;;;;;5024301;28;20860;-42
2022/04/01 08:38:25;;;;;;;7.10;6.40;;;5.50;71.50;;;;;;5007399;28;20553;-42
2022/04/01 08:40:55;;;;;;;7.10;6.37;;;5.50;72.40;;;;;;4993327;28;20482;-42
2022/04/01 08:43:33;;;;;;;8.70;7.20;;;5.60;71.90;;;;;;5024665;28;20463;-42
2022/04/01 08:46:04;;;;;;;10.27;7.63;;;5.50;71.10;;;;;;5026583;28;20459;-42
2022/04/01 08:48:32;;;;;;;7.43;6.53;;;5.60;70.30;;;;;;5008840;28;21054;-42
2022/04/01 08:50:59;;;;;;;7.80;6.90;;;5.60;70.80;;;;;;5025148;28;20459;-42
2022/04/01 08:53:26;;;;;;;9.00;7.33;;;5.60;70.80;;;;;;5005776;28;20448;-42
2022/04/01 08:55:56;;;;;;;7.83;6.57;;;5.60;71.40;;;;;;5029384;28;20539;-42
2022/04/01 08:58:23;;;;;;;9.20;8.30;;;5.60;71.30;;;;;;5024119;28;20467;-42
2022/04/01 09:00:51;;;;;;;8.73;6.73;;;5.70;70.40;;;;;;5027556;28;20451;-42
2022/04/01 09:03:21;;;;;;;9.37;7.10;;;5.60;69.50;;;;;;5024203;28;20471;-42
2022/04/01 09:05:55;;;;;;;8.37;7.30;;;5.70;70.90;;;;;;5027394;28;20450;-42
2022/04/01 09:08:29;;;;;;;9.67;6.83;;;5.70;70.70;;;;;;5008971;28;20480;-42
2022/04/01 09:10:56;;;;;;;6.83;6.13;;;5.70;70.70;;;;;;5025445;28;20563;-41
2022/04/01 09:13:30;;;;;;;11.60;7.17;;;5.80;70.90;;;;;;5023621;28;20465;-42
2022/04/01 09:15:58;;;;;;;7.13;6.20;;;5.80;69.80;;;;;;5008805;28;20534;-42
2022/04/01 09:18:33;;;;;;;6.70;6.07;;;5.70;68.80;;;;;;5026129;28;20519;-42
2022/04/01 09:21:00;;;;;;;9.50;7.17;;;5.70;69.60;;;;;;5026419;28;20458;-42
2022/04/01 09:23:27;;;;;;;8.37;6.70;;;5.70;69.70;;;;;;5025962;28;20460;-42
2022/04/01 09:25:54;;;;;;;8.07;6.80;;;5.70;70.40;;;;;;5024155;28;20463;-42
2022/04/01 09:28:29;;;;;;;8.13;6.70;;;5.70;69.80;;;;;;5026242;28;20513;-43
2022/04/01 09:31:00;;;;;;;7.93;6.50;;;5.70;69.60;;;;;;5026650;28;20466;-42
2022/04/01 09:33:54;;;;;;;7.10;6.17;;;5.70;69.40;;;;;;5021540;28;20525;-42
2022/04/01 09:36:36;;;;;;;6.90;5.83;;;5.60;69.50;;;;;;5023832;28;20956;-42
2022/04/01 09:39:05;;;;;;;7.67;6.20;;;5.60;69.40;;;;;;5026159;28;21007;-42
2022/04/01 09:41:46;;;;;;;7.50;6.50;;;5.60;69.60;;;;;;5026038;28;20455;-42
2022/04/01 09:44:36;;;;;;;6.80;6.17;;;5.60;69.20;;;;;;5026320;28;20471;-42
2022/04/01 09:47:05;;;;;;;6.83;6.17;;;5.60;70.00;;;;;;5024391;28;20514;-42
2022/04/01 09:49:39;;;;;;;6.93;6.23;;;5.60;69.50;;;;;;5026336;28;20531;-42
2022/04/01 09:52:18;;;;;;;9.00;6.90;;;5.60;69.60;;;;;;5025641;28;20456;-42
2022/04/01 09:54:50;;;;;;;7.60;6.90;;;5.70;70.20;;;;;;5027668;28;20475;-42
2022/04/01 09:57:23;;;;;;;6.27;5.60;;;5.60;70.30;;;;;;5030291;28;20534;-42
2022/04/01 09:59:51;;;;;;;7.73;5.73;;;5.70;68.80;;;;;;5026273;28;20838;-41
2022/04/01 10:02:20;;;;;;;6.93;6.23;;;5.70;69.80;;;;;;4995559;28;20469;-41
2022/04/01 10:04:47;;;;;;;8.20;6.57;;;5.70;68.30;;;;;;5028300;28;20536;-42
2022/04/01 10:07:17;;;;;;;6.67;5.97;;;5.70;68.70;;;;;;5029296;28;20493;-42
2022/04/01 10:09:45;;;;;;;6.70;6.00;;;5.70;68.50;;;;;;5029920;28;20444;-42
2022/04/01 10:12:29;;;;;;;6.63;5.93;;;5.60;68.50;;;;;;5029041;28;20450;-42
2022/04/01 10:14:58;;;;;;;8.67;6.60;;;5.60;68.40;;;;;;5028965;28;20452;-42
2022/04/01 10:17:46;;;;;;;6.87;6.17;;;5.60;67.90;;;;;;5016152;28;20467;-42
2022/04/01 10:20:13;;;;;;;7.20;6.07;;;5.60;68.10;;;;;;5014800;28;20452;-42
2022/04/01 10:22:41;;;;;;;7.20;6.50;;;5.60;68.40;;;;;;5028132;28;20475;-42
2022/04/01 10:25:29;;;;;;;7.60;6.80;;;5.60;68.60;;;;;;5029910;28;20534;-42
2022/04/01 10:28:01;;;;;;;7.73;6.03;;;5.70;69.40;;;;;;5027749;28;20483;-42
2022/04/01 10:30:31;;;;;;;6.90;6.07;;;5.70;68.20;;;;;;5029221;28;20550;-42
2022/04/01 10:32:58;;;;;;;7.57;5.63;;;5.70;68.10;;;;;;5011604;28;20462;-42
2022/04/01 10:35:28;;;;;;;8.90;6.47;;;5.70;68.40;;;;;;4991571;28;20965;-42
2022/04/01 10:38:15;;;;;;;6.90;6.20;;;5.70;68.30;;;;;;5025625;28;20582;-42
2022/04/01 10:40:46;;;;;;;7.13;6.30;;;5.80;68.10;;;;;;5025990;28;20860;-41
2022/04/01 10:43:16;;;;;;;6.70;6.00;;;5.80;68.20;;;;;;5027466;28;20452;-42
2022/04/01 10:45:59;;;;;;;6.87;6.17;;;5.80;68.60;;;;;;5006370;28;20443;-42
2022/04/01 10:54:06;;;;;;;6.13;5.53;;;5.80;68.30;;;;;;5027738;28;20466;-41
2022/04/01 10:56:36;;;;;;;6.20;5.17;;;5.80;67.90;;;;;;5026868;28;20494;-42
2022/04/01 10:59:09;;;;;;;5.90;5.40;;;5.80;68.50;;;;;;5026781;28;20463;-42
2022/04/01 11:01:43;;;;;;;5.10;4.70;;;5.90;67.00;;;;;;5026024;28;20498;-42
2022/04/01 11:04:35;;;;;;;5.67;5.07;;;5.80;67.30;;;;;;5003080;28;20580;-42
2022/04/01 11:07:29;;;;;;;5.63;5.07;;;5.80;68.20;;;;;;5015542;28;20467;-42
2022/04/01 11:10:00;;;;;;;6.70;6.00;;;5.80;68.40;;;;;;5029260;28;20526;-42
2022/04/01 11:12:29;;;;;;;7.37;5.80;;;5.90;67.50;;;;;;5027044;28;20464;-42
2022/04/01 11:15:19;;;;;;;6.23;5.50;;;5.80;67.10;;;;;;5025280;28;20860;-42
2022/04/01 11:17:49;;;;;;;7.73;6.07;;;5.80;67.50;;;;;;5027458;28;20540;-42
2022/04/01 11:20:22;;;;;;;6.00;5.37;;;5.80;66.80;;;;;;5025278;28;20464;-41
2022/04/01 11:22:59;;;;;;;7.10;5.40;;;5.80;67.20;;;;;;5027700;28;20506;-42
2022/04/01 11:25:33;;;;;;;6.73;5.80;;;5.80;67.80;;;;;;5029061;28;20555;-41
2022/04/01 11:28:04;;;;;;;5.77;5.17;;;5.80;67.30;;;;;;5028051;28;20575;-41
2022/04/01 11:30:41;;;;;;;6.50;5.80;;;5.90;67.90;;;;;;5027692;28;20964;-42
2022/04/01 11:33:19;;;;;;;6.60;6.00;;;5.90;67.70;;;;;;5007949;28;20484;-41
2022/04/01 11:35:50;;;;;;;7.20;5.10;;;5.90;67.50;;;;;;5007595;28;20563;-42
2022/04/01 11:38:19;;;;;;;6.33;5.70;;;5.90;67.30;;;;;;5026936;28;20463;-42
2022/04/01 11:40:50;;;;;;;7.33;5.27;;;5.90;68.00;;;;;;5027468;28;20510;-41
2022/04/01 11:43:19;;;;;;;6.47;5.87;;;5.90;68.10;;;;;;5027482;28;20956;-42
2022/04/01 11:45:57;;;;;;;6.13;5.53;;;5.90;67.10;;;;;;5028120;28;20510;-41
2022/04/01 11:48:38;;;;;;;5.90;5.30;;;5.90;67.90;;;;;;5028192;28;20529;-43
2022/04/01 11:51:10;;;;;;;5.30;4.30;;;5.90;67.30;;;;;;5026194;28;20532;-42
2022/04/01 11:53:41;;;;;;;5.20;4.70;;;5.90;66.90;;;;;;5026865;28;20448;-42
2022/04/01 11:56:10;;;;;;;5.30;4.47;;;5.90;66.80;;;;;;5011304;28;20448;-41
2022/04/01 11:58:51;;;;;;;5.63;4.97;;;5.80;67.30;;;;;;5026640;28;20494;-42
2022/04/01 12:01:19;;;;;;;6.50;4.87;;;5.90;67.00;;;;;;5010398;28;20527;-42
2022/04/01 12:03:47;;;;;;;5.23;4.73;;;5.90;66.90;;;;;;5025572;28;20582;-42
2022/04/01 12:09:03;;;;;;;5.23;4.80;;;5.80;68.10;;;;;;5006472;28;21094;-42
2022/04/01 12:11:37;;;;;;;5.40;4.53;;;5.90;68.00;;;;;;5023501;28;20959;-42
2022/04/01 12:14:04;;;;;;;4.97;4.27;;;5.90;68.40;;;;;;5028415;28;20469;-42
2022/04/01 12:16:31;;;;;;;6.60;4.97;;;5.90;67.70;;;;;;5023372;28;20586;-42
2022/04/01 12:18:58;;;;;;;5.10;3.90;;;6.00;67.80;;;;;;5025135;28;20460;-42
2022/04/01 12:21:25;;;;;;;6.20;4.83;;;6.00;67.50;;;;;;5027947;28;20452;-42
2022/04/01 12:23:52;;;;;;;4.53;4.10;;;6.10;67.60;;;;;;5024891;28;20455;-42
2022/04/01 12:26:24;;;;;;;3.90;3.60;;;6.10;67.90;;;;;;5009548;28;20526;-42
2022/04/01 12:28:51;;;;;;;5.40;4.90;;;6.10;66.10;;;;;;5010384;28;20490;-42
2022/04/01 12:31:26;;;;;;;4.50;4.10;;;6.10;67.60;;;;;;5021735;28;20564;-42
2022/04/01 12:33:56;;;;;;;4.50;4.10;;;6.10;67.80;;;;;;5028129;28;20451;-42
2022/04/01 12:36:34;;;;;;;5.03;4.40;;;6.10;66.80;;;;;;5006768;28;20543;-42
2022/04/01 12:39:05;;;;;;;5.30;4.80;;;6.10;67.50;;;;;;5003087;28;20463;-42
2022/04/01 12:41:32;;;;;;;5.10;4.60;;;6.20;68.00;;;;;;5026649;28;20466;-42
2022/04/01 12:44:10;;;;;;;4.83;4.43;;;6.20;67.70;;;;;;5025706;28;20509;-43
2022/04/01 12:46:36;;;;;;;5.73;4.83;;;6.10;68.00;;;;;;5023484;28;20465;-42
2022/04/01 12:49:12;;;;;;;7.20;5.70;;;6.10;68.90;;;;;;5007630;28;21053;-42
2022/04/01 12:51:47;;;;;;;5.77;5.17;;;6.00;68.70;;;;;;5025602;28;20492;-43
2022/04/01 12:54:33;;;;;;;6.67;6.07;;;6.00;70.70;;;;;;5009713;28;20443;-43
2022/04/01 12:57:03;;;;;;;5.77;5.27;;;5.90;71.20;;;;;;5024447;28;20938;-41
2022/04/01 12:59:39;;;;;;;6.13;5.50;;;5.90;71.40;;;;;;5021956;28;20515;-41
2022/04/01 13:02:14;;;;;;;6.20;5.40;;;5.80;71.00;;;;;;5023917;28;20557;-42
2022/04/01 13:04:49;;;;;;;5.80;5.20;;;5.80;71.90;;;;;;5019950;28;20471;-42
2022/04/01 13:07:22;;;;;;;4.83;4.43;;;5.70;71.40;;;;;;5007153;28;20467;-43
2022/04/01 13:09:56;;;;;;;5.90;5.40;;;5.70;72.00;;;;;;5025049;28;21049;-42
2022/04/01 13:12:40;;;;;;;5.60;4.73;;;5.70;73.00;;;;;;5025017;28;20534;-42
2022/04/01 13:15:15;;;;;;;5.70;5.13;;;5.70;73.00;;;;;;5022865;28;20550;-42
2022/04/01 13:17:43;;;;;;;6.40;5.80;;;5.70;73.70;;;;;;5024799;28;20491;-42
2022/04/01 13:20:11;;;;;;;6.50;5.90;;;5.80;73.90;;;;;;5024262;28;20460;-42
2022/04/01 13:22:40;;;;;;;5.13;4.73;;;5.80;73.50;;;;;;5025714;28;20828;-42
2022/04/01 13:25:08;;;;;;;6.60;5.60;;;5.80;72.60;;;;;;5024940;28;20498;-42
2022/04/01 13:27:35;;;;;;;6.43;5.83;;;5.80;72.60;;;;;;5004985;28;20476;-42